sensor_id;sensor_type;location;lat;lon;timestamp;P1;durP1;ratioP1;P2;durP2;ratioP2
46122;SDS011;31856;-35.404;149.120;2022-11-13T00:49:46;3.65;;;1.98;;
46122;SDS011;31856;-35.404;149.120;2022-11-13T00:52:16;4.38;;;1.98;;
46122;SDS011;31856;-35.404;149.120;2022-11-13T00:54:47;2.22;;;1.92;;
46122;SDS011;31856;-35.404;149.120;2022-11-13T00:57:17;3.65;;;1.95;;
46122;SDS011;31856;-35.404;149.120;2022-11-13T00:59:47;2.03;;;1.83;;
46122;SDS011;31856;-35.404;149.120;2022-11-13T01:02:17;1.60;;;1.50;;
46122;SDS011;31856;-35.404;149.120;2022-11-13T01:04:47;3.17;;;1.40;;
46122;SDS011;31856;-35.404;149.120;2022-11-13T01:07:17;1.77;;;1.38;;
46122;SDS011;31856;-35.404;149.120;2022-11-13T01:09:50;2.30;;;1.20;;
46122;SDS011;31856;-35.404;149.120;2022-11-13T01:12:20;4.35;;;1.10;;
46122;SDS011;31856;-35.404;149.120;2022-11-13T01:14:50;2.45;;;1.20;;
46122;SDS011;31856;-35.404;149.120;2022-11-13T01:17:20;2.35;;;1.20;;
46122;SDS011;31856;-35.404;149.120;2022-11-13T01:19:50;1.30;;;0.90;;
46122;SDS011;31856;-35.404;149.120;2022-11-13T01:22:20;1.10;;;0.93;;
46122;SDS011;31856;-35.404;149.120;2022-11-13T01:24:50;1.10;;;1.00;;
46122;SDS011;31856;-35.404;149.120;2022-11-13T01:27:20;1.20;;;1.02;;
46122;SDS011;31856;-35.404;149.120;2022-11-13T01:29:53;1.70;;;0.90;;
46122;SDS011;31856;-35.404;149.120;2022-11-13T01:32:23;1.08;;;0.90;;
46122;SDS011;31856;-35.404;149.120;2022-11-13T01:34:53;1.30;;;0.98;;
46122;SDS011;31856;-35.404;149.120;2022-11-13T01:37:23;2.47;;;0.70;;
46122;SDS011;31856;-35.404;149.120;2022-11-13T01:39:52;1.58;;;0.88;;
46122;SDS011;31856;-35.404;149.120;2022-11-13T01:42:22;1.20;;;0.80;;
46122;SDS011;31856;-35.404;149.120;2022-11-13T01:44:55;1.35;;;0.88;;
46122;SDS011;31856;-35.404;149.120;2022-11-13T01:47:26;1.80;;;1.00;;
46122;SDS011;31856;-35.404;149.120;2022-11-13T01:49:58;2.47;;;0.88;;
46122;SDS011;31856;-35.404;149.120;2022-11-13T01:52:33;0.93;;;0.80;;
46122;SDS011;31856;-35.404;149.120;2022-11-13T01:55:07;2.67;;;0.80;;
46122;SDS011;31856;-35.404;149.120;2022-11-13T01:57:39;1.52;;;0.75;;
46122;SDS011;31856;-35.404;149.120;2022-11-13T02:00:09;1.40;;;0.80;;
46122;SDS011;31856;-35.404;149.120;2022-11-13T02:02:40;1.00;;;0.70;;
46122;SDS011;31856;-35.404;149.120;2022-11-13T02:05:10;1.65;;;0.70;;
46122;SDS011;31856;-35.404;149.120;2022-11-13T02:07:41;2.10;;;0.70;;
46122;SDS011;31856;-35.404;149.120;2022-11-13T02:10:11;0.90;;;0.70;;
46122;SDS011;31856;-35.404;149.120;2022-11-13T02:12:42;1.00;;;0.60;;
46122;SDS011;31856;-35.404;149.120;2022-11-13T02:15:12;1.20;;;0.52;;
46122;SDS011;31856;-35.404;149.120;2022-11-13T02:20:12;3.00;;;0.70;;
46122;SDS011;31856;-35.404;149.120;2022-11-13T02:25:18;3.38;;;0.93;;
46122;SDS011;31856;-35.404;149.120;2022-11-13T02:27:49;1.48;;;0.70;;
46122;SDS011;31856;-35.404;149.120;2022-11-13T02:30:23;1.50;;;0.55;;
46122;SDS011;31856;-35.404;149.120;2022-11-13T02:32:54;1.17;;;0.68;;
46122;SDS011;31856;-35.404;149.120;2022-11-13T02:35:26;1.83;;;0.77;;
46122;SDS011;31856;-35.404;149.120;2022-11-13T02:37:58;1.60;;;0.65;;
46122;SDS011;31856;-35.404;149.120;2022-11-13T02:40:28;0.77;;;0.70;;
46122;SDS011;31856;-35.404;149.120;2022-11-13T02:42:59;1.60;;;0.70;;
46122;SDS011;31856;-35.404;149.120;2022-11-13T02:45:29;2.15;;;0.93;;
46122;SDS011;31856;-35.404;149.120;2022-11-13T02:47:59;1.60;;;0.90;;
46122;SDS011;31856;-35.404;149.120;2022-11-13T02:50:30;1.08;;;0.63;;
46122;SDS011;31856;-35.404;149.120;2022-11-13T02:53:00;1.45;;;0.70;;
46122;SDS011;31856;-35.404;149.120;2022-11-13T02:55:30;0.93;;;0.75;;
46122;SDS011;31856;-35.404;149.120;2022-11-13T02:58:00;1.25;;;0.80;;
46122;SDS011;31856;-35.404;149.120;2022-11-13T03:00:30;0.88;;;0.70;;
46122;SDS011;31856;-35.404;149.120;2022-11-13T03:03:00;1.10;;;0.70;;
46122;SDS011;31856;-35.404;149.120;2022-11-13T03:05:31;1.40;;;0.70;;
46122;SDS011;31856;-35.404;149.120;2022-11-13T03:08:01;1.17;;;0.77;;
46122;SDS011;31856;-35.404;149.120;2022-11-13T03:10:31;1.33;;;0.70;;
46122;SDS011;31856;-35.404;149.120;2022-11-13T03:13:01;3.10;;;0.80;;
46122;SDS011;31856;-35.404;149.120;2022-11-13T03:15:32;1.20;;;0.60;;
46122;SDS011;31856;-35.404;149.120;2022-11-13T03:18:05;0.90;;;0.70;;
46122;SDS011;31856;-35.404;149.120;2022-11-13T03:20:36;2.42;;;0.73;;
46122;SDS011;31856;-35.404;149.120;2022-11-13T03:23:06;1.63;;;0.70;;
46122;SDS011;31856;-35.404;149.120;2022-11-13T03:25:36;1.35;;;0.80;;
46122;SDS011;31856;-35.404;149.120;2022-11-13T08:14:00;1.52;;;0.80;;
46122;SDS011;31856;-35.404;149.120;2022-11-13T08:16:30;0.98;;;0.70;;
46122;SDS011;31856;-35.404;149.120;2022-11-13T08:19:01;1.77;;;0.70;;
46122;SDS011;31856;-35.404;149.120;2022-11-13T08:21:31;1.85;;;0.90;;
46122;SDS011;31856;-35.404;149.120;2022-11-13T08:24:02;0.95;;;0.75;;
46122;SDS011;31856;-35.404;149.120;2022-11-13T08:26:32;1.98;;;0.80;;
46122;SDS011;31856;-35.404;149.120;2022-11-13T08:29:03;1.80;;;0.85;;
46122;SDS011;31856;-35.404;149.120;2022-11-13T08:31:35;1.90;;;0.82;;
46122;SDS011;31856;-35.404;149.120;2022-11-13T08:34:05;1.67;;;0.80;;
46122;SDS011;31856;-35.404;149.120;2022-11-13T08:36:36;1.40;;;0.80;;
46122;SDS011;31856;-35.404;149.120;2022-11-13T08:39:07;1.02;;;0.75;;
46122;SDS011;31856;-35.404;149.120;2022-11-13T08:41:37;2.42;;;0.80;;
46122;SDS011;31856;-35.404;149.120;2022-11-13T08:44:09;1.20;;;0.75;;
46122;SDS011;31856;-35.404;149.120;2022-11-13T08:46:39;0.70;;;0.50;;
46122;SDS011;31856;-35.404;149.120;2022-11-13T08:49:09;2.72;;;0.70;;
46122;SDS011;31856;-35.404;149.120;2022-11-13T08:51:39;1.42;;;0.65;;
46122;SDS011;31856;-35.404;149.120;2022-11-13T08:54:09;1.85;;;0.70;;
46122;SDS011;31856;-35.404;149.120;2022-11-13T08:56:39;0.77;;;0.50;;
46122;SDS011;31856;-35.404;149.120;2022-11-13T08:59:09;1.15;;;0.50;;
46122;SDS011;31856;-35.404;149.120;2022-11-13T09:01:39;0.73;;;0.40;;
46122;SDS011;31856;-35.404;149.120;2022-11-13T09:04:09;1.35;;;0.60;;
46122;SDS011;31856;-35.404;149.120;2022-11-13T09:06:39;1.30;;;0.60;;
46122;SDS011;31856;-35.404;149.120;2022-11-13T09:09:10;1.27;;;0.50;;
46122;SDS011;31856;-35.404;149.120;2022-11-13T09:11:40;0.77;;;0.60;;
46122;SDS011;31856;-35.404;149.120;2022-11-13T09:14:11;1.25;;;0.55;;
46122;SDS011;31856;-35.404;149.120;2022-11-13T09:16:41;1.27;;;0.57;;
46122;SDS011;31856;-35.404;149.120;2022-11-13T09:19:11;0.98;;;0.50;;
46122;SDS011;31856;-35.404;149.120;2022-11-13T09:21:41;0.68;;;0.40;;
46122;SDS011;31856;-35.404;149.120;2022-11-13T09:24:11;1.27;;;0.40;;
46122;SDS011;31856;-35.404;149.120;2022-11-13T09:26:42;0.35;;;0.30;;
46122;SDS011;31856;-35.404;149.120;2022-11-13T09:29:12;3.00;;;0.40;;
46122;SDS011;31856;-35.404;149.120;2022-11-13T09:31:42;0.52;;;0.38;;
46122;SDS011;31856;-35.404;149.120;2022-11-13T09:34:12;0.43;;;0.30;;
46122;SDS011;31856;-35.404;149.120;2022-11-13T09:36:42;1.30;;;0.40;;
46122;SDS011;31856;-35.404;149.120;2022-11-13T09:39:12;0.75;;;0.50;;
46122;SDS011;31856;-35.404;149.120;2022-11-13T09:44:37;0.57;;;0.40;;
46122;SDS011;31856;-35.404;149.120;2022-11-13T09:49:56;1.02;;;0.40;;
46122;SDS011;31856;-35.404;149.120;2022-11-13T10:05:23;0.60;;;0.43;;
46122;SDS011;31856;-35.404;149.120;2022-11-13T10:13:23;1.58;;;0.50;;
46122;SDS011;31856;-35.404;149.120;2022-11-13T10:15:56;1.67;;;0.40;;
46122;SDS011;31856;-35.404;149.120;2022-11-13T10:18:29;0.80;;;0.40;;
46122;SDS011;31856;-35.404;149.120;2022-11-13T10:21:14;1.77;;;0.50;;
46122;SDS011;31856;-35.404;149.120;2022-11-13T10:23:48;1.98;;;0.60;;
46122;SDS011;31856;-35.404;149.120;2022-11-13T10:26:20;0.50;;;0.40;;
46122;SDS011;31856;-35.404;149.120;2022-11-13T10:28:54;0.43;;;0.40;;
46122;SDS011;31856;-35.404;149.120;2022-11-13T10:31:44;1.00;;;0.50;;
46122;SDS011;31856;-35.404;149.120;2022-11-13T10:34:15;0.57;;;0.45;;
46122;SDS011;31856;-35.404;149.120;2022-11-13T10:39:40;0.47;;;0.40;;
46122;SDS011;31856;-35.404;149.120;2022-11-13T10:42:20;0.90;;;0.60;;
46122;SDS011;31856;-35.404;149.120;2022-11-13T10:44:54;0.60;;;0.43;;
46122;SDS011;31856;-35.404;149.120;2022-11-13T10:47:26;0.68;;;0.47;;
46122;SDS011;31856;-35.404;149.120;2022-11-13T10:50:21;1.00;;;0.40;;
46122;SDS011;31856;-35.404;149.120;2022-11-13T10:52:52;1.13;;;0.40;;
46122;SDS011;31856;-35.404;149.120;2022-11-13T10:55:39;0.60;;;0.50;;
46122;SDS011;31856;-35.404;149.120;2022-11-13T10:58:11;1.40;;;0.40;;
46122;SDS011;31856;-35.404;149.120;2022-11-13T11:00:41;1.30;;;0.40;;
46122;SDS011;31856;-35.404;149.120;2022-11-13T11:03:18;1.35;;;0.60;;
46122;SDS011;31856;-35.404;149.120;2022-11-13T11:09:25;1.15;;;0.50;;
46122;SDS011;31856;-35.404;149.120;2022-11-13T11:22:50;0.70;;;0.50;;
46122;SDS011;31856;-35.404;149.120;2022-11-13T11:27:53;0.98;;;0.40;;
46122;SDS011;31856;-35.404;149.120;2022-11-13T11:30:25;1.00;;;0.60;;
46122;SDS011;31856;-35.404;149.120;2022-11-13T12:50:28;0.73;;;0.40;;
46122;SDS011;31856;-35.404;149.120;2022-11-13T12:53:00;0.60;;;0.50;;
46122;SDS011;31856;-35.404;149.120;2022-11-13T12:55:31;1.02;;;0.40;;
46122;SDS011;31856;-35.404;149.120;2022-11-13T12:58:16;0.50;;;0.43;;
46122;SDS011;31856;-35.404;149.120;2022-11-13T13:01:16;1.52;;;0.50;;
46122;SDS011;31856;-35.404;149.120;2022-11-13T13:14:58;0.50;;;0.40;;
46122;SDS011;31856;-35.404;149.120;2022-11-13T13:17:30;1.13;;;0.52;;
46122;SDS011;31856;-35.404;149.120;2022-11-13T13:20:01;0.50;;;0.50;;
46122;SDS011;31856;-35.404;149.120;2022-11-13T13:22:33;0.80;;;0.50;;
46122;SDS011;31856;-35.404;149.120;2022-11-13T13:25:05;0.90;;;0.50;;
46122;SDS011;31856;-35.404;149.120;2022-11-13T13:27:40;0.75;;;0.60;;
46122;SDS011;31856;-35.404;149.120;2022-11-13T13:30:15;0.63;;;0.50;;
46122;SDS011;31856;-35.404;149.120;2022-11-13T13:35:20;0.50;;;0.50;;
46122;SDS011;31856;-35.404;149.120;2022-11-13T13:37:58;0.47;;;0.43;;
46122;SDS011;31856;-35.404;149.120;2022-11-13T13:43:17;0.85;;;0.55;;
46122;SDS011;31856;-35.404;149.120;2022-11-13T13:48:20;0.80;;;0.50;;
46122;SDS011;31856;-35.404;149.120;2022-11-13T14:11:55;1.85;;;0.55;;
46122;SDS011;31856;-35.404;149.120;2022-11-13T14:14:27;0.85;;;0.52;;
46122;SDS011;31856;-35.404;149.120;2022-11-13T14:19:56;0.50;;;0.47;;
46122;SDS011;31856;-35.404;149.120;2022-11-13T14:22:29;0.90;;;0.60;;
46122;SDS011;31856;-35.404;149.120;2022-11-13T14:25:00;1.00;;;0.60;;
46122;SDS011;31856;-35.404;149.120;2022-11-13T14:27:31;0.68;;;0.60;;
46122;SDS011;31856;-35.404;149.120;2022-11-13T14:30:01;0.55;;;0.50;;
46122;SDS011;31856;-35.404;149.120;2022-11-13T14:32:37;1.25;;;0.60;;
46122;SDS011;31856;-35.404;149.120;2022-11-13T14:35:16;0.90;;;0.65;;
46122;SDS011;31856;-35.404;149.120;2022-11-13T14:37:47;3.15;;;0.70;;
46122;SDS011;31856;-35.404;149.120;2022-11-13T14:40:29;0.70;;;0.52;;
46122;SDS011;31856;-35.404;149.120;2022-11-13T14:46:21;1.35;;;0.88;;
46122;SDS011;31856;-35.404;149.120;2022-11-13T14:48:53;1.00;;;0.60;;
46122;SDS011;31856;-35.404;149.120;2022-11-13T14:51:28;1.35;;;0.70;;
46122;SDS011;31856;-35.404;149.120;2022-11-13T14:54:02;0.95;;;0.70;;
46122;SDS011;31856;-35.404;149.120;2022-11-13T14:59:08;2.75;;;0.60;;
46122;SDS011;31856;-35.404;149.120;2022-11-13T15:01:55;2.10;;;0.70;;
46122;SDS011;31856;-35.404;149.120;2022-11-13T15:04:25;2.00;;;0.70;;
46122;SDS011;31856;-35.404;149.120;2022-11-13T15:06:56;1.48;;;0.60;;
46122;SDS011;31856;-35.404;149.120;2022-11-13T15:40:35;0.95;;;0.50;;
46122;SDS011;31856;-35.404;149.120;2022-11-13T15:43:17;0.45;;;0.40;;
46122;SDS011;31856;-35.404;149.120;2022-11-13T15:45:49;0.40;;;0.40;;
46122;SDS011;31856;-35.404;149.120;2022-11-13T15:48:20;0.43;;;0.40;;
46122;SDS011;31856;-35.404;149.120;2022-11-13T15:50:50;0.50;;;0.40;;
46122;SDS011;31856;-35.404;149.120;2022-11-13T15:53:21;0.50;;;0.50;;
46122;SDS011;31856;-35.404;149.120;2022-11-13T15:55:51;2.47;;;0.45;;
46122;SDS011;31856;-35.404;149.120;2022-11-13T15:58:21;0.60;;;0.40;;
46122;SDS011;31856;-35.404;149.120;2022-11-13T16:00:56;1.13;;;0.37;;
46122;SDS011;31856;-35.404;149.120;2022-11-13T16:03:26;0.40;;;0.40;;
46122;SDS011;31856;-35.404;149.120;2022-11-13T16:05:59;0.90;;;0.30;;
46122;SDS011;31856;-35.404;149.120;2022-11-13T16:08:29;0.40;;;0.40;;
46122;SDS011;31856;-35.404;149.120;2022-11-13T16:10:59;0.75;;;0.40;;
46122;SDS011;31856;-35.404;149.120;2022-11-13T16:13:31;0.40;;;0.40;;
46122;SDS011;31856;-35.404;149.120;2022-11-13T16:16:01;0.43;;;0.43;;
46122;SDS011;31856;-35.404;149.120;2022-11-13T16:21:40;0.38;;;0.30;;
46122;SDS011;31856;-35.404;149.120;2022-11-13T16:24:10;0.30;;;0.30;;
46122;SDS011;31856;-35.404;149.120;2022-11-13T16:26:41;0.90;;;0.25;;
46122;SDS011;31856;-35.404;149.120;2022-11-13T16:29:20;1.42;;;0.40;;
46122;SDS011;31856;-35.404;149.120;2022-11-13T16:32:03;0.30;;;0.30;;
46122;SDS011;31856;-35.404;149.120;2022-11-13T16:34:32;0.30;;;0.30;;
46122;SDS011;31856;-35.404;149.120;2022-11-13T21:06:18;1.40;;;0.40;;
46122;SDS011;31856;-35.404;149.120;2022-11-13T21:08:49;2.40;;;0.60;;
46122;SDS011;31856;-35.404;149.120;2022-11-13T21:11:23;1.08;;;0.40;;
46122;SDS011;31856;-35.404;149.120;2022-11-13T21:13:53;1.30;;;0.50;;
46122;SDS011;31856;-35.404;149.120;2022-11-13T21:16:26;2.28;;;0.43;;
46122;SDS011;31856;-35.404;149.120;2022-11-13T21:18:56;2.72;;;0.50;;
46122;SDS011;31856;-35.404;149.120;2022-11-13T21:21:27;1.10;;;0.50;;
46122;SDS011;31856;-35.404;149.120;2022-11-13T21:23:57;1.02;;;0.40;;
46122;SDS011;31856;-35.404;149.120;2022-11-13T21:26:27;0.60;;;0.40;;
46122;SDS011;31856;-35.404;149.120;2022-11-13T21:28:58;1.05;;;0.40;;
46122;SDS011;31856;-35.404;149.120;2022-11-13T21:31:28;0.38;;;0.30;;
46122;SDS011;31856;-35.404;149.120;2022-11-13T21:34:15;1.17;;;0.30;;
46122;SDS011;31856;-35.404;149.120;2022-11-13T21:36:52;0.82;;;0.40;;
46122;SDS011;31856;-35.404;149.120;2022-11-13T21:39:22;1.17;;;0.35;;
46122;SDS011;31856;-35.404;149.120;2022-11-13T21:41:52;1.77;;;0.47;;
46122;SDS011;31856;-35.404;149.120;2022-11-13T21:44:22;0.90;;;0.40;;
46122;SDS011;31856;-35.404;149.120;2022-11-13T21:46:52;0.75;;;0.32;;
46122;SDS011;31856;-35.404;149.120;2022-11-13T21:49:22;0.52;;;0.38;;
46122;SDS011;31856;-35.404;149.120;2022-11-13T21:51:52;2.08;;;0.40;;
46122;SDS011;31856;-35.404;149.120;2022-11-13T21:54:22;0.73;;;0.40;;
46122;SDS011;31856;-35.404;149.120;2022-11-13T21:56:59;1.77;;;0.40;;
46122;SDS011;31856;-35.404;149.120;2022-11-13T22:46:55;2.08;;;0.60;;
46122;SDS011;31856;-35.404;149.120;2022-11-13T22:49:27;0.32;;;0.30;;
46122;SDS011;31856;-35.404;149.120;2022-11-13T22:52:09;1.20;;;0.38;;
46122;SDS011;31856;-35.404;149.120;2022-11-13T22:54:45;3.03;;;0.57;;
46122;SDS011;31856;-35.404;149.120;2022-11-13T22:57:18;2.97;;;0.43;;
46122;SDS011;31856;-35.404;149.120;2022-11-13T22:59:49;1.08;;;0.38;;
46122;SDS011;31856;-35.404;149.120;2022-11-13T23:02:24;2.85;;;0.50;;
46122;SDS011;31856;-35.404;149.120;2022-11-13T23:04:54;1.02;;;0.40;;
46122;SDS011;31856;-35.404;149.120;2022-11-13T23:07:24;2.58;;;0.50;;
46122;SDS011;31856;-35.404;149.120;2022-11-13T23:09:55;1.70;;;0.45;;
46122;SDS011;31856;-35.404;149.120;2022-11-13T23:12:42;2.83;;;0.55;;
46122;SDS011;31856;-35.404;149.120;2022-11-13T23:15:16;1.77;;;0.50;;
46122;SDS011;31856;-35.404;149.120;2022-11-13T23:17:46;2.03;;;0.55;;
46122;SDS011;31856;-35.404;149.120;2022-11-13T23:20:16;1.63;;;0.40;;
46122;SDS011;31856;-35.404;149.120;2022-11-13T23:22:49;0.50;;;0.35;;
46122;SDS011;31856;-35.404;149.120;2022-11-13T23:25:22;0.47;;;0.30;;
46122;SDS011;31856;-35.404;149.120;2022-11-13T23:28:04;1.48;;;0.40;;
46122;SDS011;31856;-35.404;149.120;2022-11-13T23:30:34;1.67;;;0.50;;
46122;SDS011;31856;-35.404;149.120;2022-11-13T23:33:08;2.00;;;0.50;;
46122;SDS011;31856;-35.404;149.120;2022-11-13T23:35:55;4.03;;;0.40;;
46122;SDS011;31856;-35.404;149.120;2022-11-13T23:38:30;3.47;;;0.43;;
46122;SDS011;31856;-35.404;149.120;2022-11-13T23:41:06;3.25;;;0.55;;
46122;SDS011;31856;-35.404;149.120;2022-11-13T23:43:36;0.98;;;0.43;;
46122;SDS011;31856;-35.404;149.120;2022-11-13T23:46:26;1.35;;;0.40;;
46122;SDS011;31856;-35.404;149.120;2022-11-13T23:48:59;6.10;;;0.52;;
46122;SDS011;31856;-35.404;149.120;2022-11-13T23:51:44;1.40;;;0.70;;
46122;SDS011;31856;-35.404;149.120;2022-11-13T23:54:14;2.88;;;0.63;;
46122;SDS011;31856;-35.404;149.120;2022-11-13T23:56:49;2.42;;;0.50;;
46122;SDS011;31856;-35.404;149.120;2022-11-13T23:59:19;1.15;;;0.50;;
